createdAt,value
2018-09-24T00:01:10.058Z,99.90
2018-09-24T00:03:38.478Z,99.90
2018-09-24T00:06:07.158Z,99.90
2018-09-24T00:08:35.601Z,99.90
2018-09-24T00:11:04.062Z,99.90
2018-09-24T00:13:32.510Z,99.90
2018-09-24T00:16:00.920Z,99.90
2018-09-24T00:18:29.373Z,99.90
2018-09-24T00:20:57.844Z,99.90
2018-09-24T00:23:26.291Z,99.90
2018-09-24T00:25:54.709Z,99.90
2018-09-24T00:28:23.107Z,99.90
2018-09-24T00:30:51.542Z,99.90
2018-09-24T00:33:19.971Z,99.90
2018-09-24T00:35:48.403Z,99.90
2018-09-24T00:38:16.855Z,99.90
2018-09-24T00:40:45.246Z,99.90
2018-09-24T00:43:13.710Z,99.90
2018-09-24T00:45:42.128Z,99.90
2018-09-24T00:48:10.502Z,99.90
2018-09-24T00:50:38.969Z,99.90
2018-09-24T00:53:07.501Z,99.90
2018-09-24T00:55:36.183Z,99.90
2018-09-24T00:58:04.626Z,99.90
2018-09-24T01:00:33.042Z,99.90
2018-09-24T01:03:01.465Z,99.90
2018-09-24T01:05:29.929Z,99.90
2018-09-24T01:07:58.405Z,99.90
2018-09-24T01:10:27.442Z,99.90
2018-09-24T01:12:55.848Z,99.90
2018-09-24T01:15:24.276Z,99.90
2018-09-24T01:17:52.734Z,99.90
2018-09-24T01:20:21.185Z,99.90
2018-09-24T01:22:49.584Z,99.90
2018-09-24T01:25:18.041Z,99.90
2018-09-24T01:27:46.491Z,99.90
2018-09-24T01:30:15.342Z,99.90
2018-09-24T01:32:43.778Z,99.90
2018-09-24T01:35:12.192Z,99.90
2018-09-24T01:37:40.575Z,99.90
2018-09-24T01:40:09.025Z,99.90
2018-09-24T01:42:37.423Z,99.90
2018-09-24T01:45:05.952Z,99.90
2018-09-24T01:47:34.398Z,99.90
2018-09-24T01:50:02.844Z,99.90
2018-09-24T01:52:31.246Z,99.90
2018-09-24T01:54:59.738Z,99.90
2018-09-24T01:57:28.155Z,99.90
2018-09-24T01:59:57.524Z,99.90
2018-09-24T02:02:26.697Z,99.90
2018-09-24T02:04:55.080Z,99.90
2018-09-24T02:07:24.037Z,99.90
2018-09-24T02:09:52.444Z,99.90
2018-09-24T02:12:20.925Z,99.90
2018-09-24T02:14:49.337Z,99.90
2018-09-24T02:17:19.459Z,99.90
2018-09-24T02:19:48.942Z,99.90
2018-09-24T02:22:25.375Z,99.90
2018-09-24T02:24:54.313Z,99.90
2018-09-24T02:27:23.582Z,99.90
2018-09-24T02:29:51.969Z,99.90
2018-09-24T02:32:20.525Z,99.90
2018-09-24T02:34:50.073Z,99.90
2018-09-24T02:37:18.802Z,99.90
2018-09-24T02:39:47.247Z,99.90
2018-09-24T02:42:15.679Z,99.90
2018-09-24T02:44:44.108Z,99.90
2018-09-24T02:47:12.546Z,99.90
2018-09-24T02:49:40.943Z,99.90
2018-09-24T02:52:10.038Z,99.90
2018-09-24T02:54:38.444Z,99.90
2018-09-24T02:57:07.642Z,99.90
2018-09-24T02:59:36.189Z,99.90
2018-09-24T03:02:04.609Z,99.90
2018-09-24T03:04:33.165Z,99.90
2018-09-24T03:07:01.546Z,99.90
2018-09-24T03:09:30.631Z,99.90
2018-09-24T03:11:59.017Z,99.90
2018-09-24T03:14:28.319Z,99.90
2018-09-24T03:16:56.842Z,99.90
2018-09-24T03:19:25.363Z,99.90
2018-09-24T03:21:53.733Z,99.90
2018-09-24T03:24:22.140Z,99.90
2018-09-24T03:26:50.539Z,99.90
2018-09-24T03:29:20.134Z,99.90
2018-09-24T03:31:48.531Z,99.90
2018-09-24T03:34:17.961Z,99.90
2018-09-24T03:36:47.303Z,99.90
2018-09-24T03:39:15.689Z,99.90
2018-09-24T03:41:44.679Z,99.90
2018-09-24T03:44:13.033Z,99.90
2018-09-24T03:46:41.952Z,99.90
2018-09-24T03:49:10.866Z,99.90
2018-09-24T03:51:39.421Z,99.90
2018-09-24T03:54:08.893Z,99.90
2018-09-24T03:56:37.327Z,99.90
2018-09-24T03:59:05.880Z,99.90
2018-09-24T04:01:34.239Z,99.90
2018-09-24T04:04:07.798Z,99.90
2018-09-24T04:06:41.452Z,99.90
2018-09-24T04:09:15.402Z,99.90
2018-09-24T04:11:49.190Z,99.90
2018-09-24T04:14:22.905Z,99.90
2018-09-24T04:16:56.739Z,99.90
2018-09-24T04:19:30.694Z,99.90
2018-09-24T04:22:04.439Z,99.90
2018-09-24T04:24:38.216Z,99.90
2018-09-24T04:27:12.043Z,99.90
2018-09-24T04:29:45.735Z,99.90
2018-09-24T04:32:19.381Z,99.90
2018-09-24T04:34:53.168Z,99.90
2018-09-24T04:37:26.742Z,99.90
2018-09-24T04:40:00.410Z,99.90
2018-09-24T04:42:34.091Z,99.90
2018-09-24T04:45:07.929Z,99.90
2018-09-24T04:47:41.733Z,99.90
2018-09-24T04:50:15.509Z,99.90
2018-09-24T04:52:49.343Z,99.90
2018-09-24T04:55:22.906Z,99.90
2018-09-24T04:57:56.668Z,99.90
2018-09-24T05:00:30.461Z,99.90
2018-09-24T05:03:04.128Z,99.90
2018-09-24T05:05:37.719Z,99.90
2018-09-24T05:08:11.518Z,99.90
2018-09-24T05:10:45.220Z,99.90
2018-09-24T05:13:18.902Z,99.90
2018-09-24T05:15:52.519Z,99.90
2018-09-24T05:18:26.481Z,99.90
2018-09-24T05:21:00.243Z,99.90
2018-09-24T05:23:34.003Z,99.90
2018-09-24T05:26:08.482Z,99.90
2018-09-24T05:28:42.292Z,99.90
2018-09-24T05:31:15.968Z,99.90
2018-09-24T05:33:49.710Z,99.90
2018-09-24T05:36:23.342Z,99.90
2018-09-24T05:38:56.926Z,99.90
2018-09-24T05:41:30.759Z,99.90
2018-09-24T05:44:04.557Z,99.90
2018-09-24T05:46:38.307Z,99.90
2018-09-24T05:49:11.981Z,99.90
2018-09-24T05:51:45.659Z,99.90
2018-09-24T05:54:20.120Z,99.90
2018-09-24T05:56:53.912Z,99.90
2018-09-24T05:59:27.587Z,99.90
2018-09-24T06:02:01.260Z,99.90
2018-09-24T06:04:35.000Z,99.90
2018-09-24T06:07:08.652Z,99.90
2018-09-24T06:09:42.413Z,99.90
2018-09-24T06:12:16.139Z,99.90
2018-09-24T06:14:49.845Z,99.90
2018-09-24T06:17:23.684Z,99.90
2018-09-24T06:19:57.376Z,99.90
2018-09-24T06:22:31.138Z,99.90
2018-09-24T06:25:04.862Z,99.90
2018-09-24T06:27:38.724Z,99.90
2018-09-24T06:30:12.390Z,99.90
2018-09-24T06:32:46.152Z,99.90
2018-09-24T06:35:19.971Z,99.90
2018-09-24T06:37:53.736Z,99.90
2018-09-24T06:40:27.483Z,99.90
2018-09-24T06:43:01.163Z,99.90
2018-09-24T06:45:34.806Z,99.90
2018-09-24T06:48:08.730Z,99.90
2018-09-24T06:50:42.516Z,99.90
2018-09-24T06:53:16.214Z,99.90
2018-09-24T06:55:50.691Z,99.90
2018-09-24T06:58:24.416Z,99.90
2018-09-24T07:00:58.105Z,99.90
2018-09-24T07:03:31.760Z,99.90
2018-09-24T07:06:05.494Z,99.90
2018-09-24T07:08:39.134Z,99.90
2018-09-24T07:11:12.714Z,99.90
2018-09-24T07:13:46.524Z,99.90
2018-09-24T07:16:20.322Z,99.90
2018-09-24T07:18:54.093Z,99.90
2018-09-24T07:21:27.961Z,99.90
2018-09-24T07:24:01.802Z,99.90
2018-09-24T07:26:35.569Z,99.90
2018-09-24T07:29:09.307Z,99.90
2018-09-24T07:31:43.081Z,99.90
2018-09-24T07:34:16.786Z,99.90
2018-09-24T07:36:50.574Z,99.90
2018-09-24T07:39:24.300Z,99.90
2018-09-24T07:41:58.089Z,99.90
2018-09-24T07:44:31.798Z,99.90
2018-09-24T07:47:05.613Z,99.90
2018-09-24T07:49:39.440Z,99.90
2018-09-24T07:52:13.296Z,99.90
2018-09-24T07:54:47.053Z,99.90
2018-09-24T07:57:20.749Z,99.90
2018-09-24T07:59:54.568Z,99.90
2018-09-24T08:02:28.463Z,99.90
2018-09-24T08:05:02.232Z,99.90
2018-09-24T08:07:36.146Z,99.90
2018-09-24T08:10:09.866Z,99.90
2018-09-24T08:12:43.635Z,99.90
2018-09-24T08:15:17.405Z,99.90
2018-09-24T08:17:51.109Z,99.90
2018-09-24T08:20:24.811Z,99.90
2018-09-24T08:22:58.619Z,99.90
2018-09-24T08:25:32.425Z,99.90
2018-09-24T08:28:06.254Z,99.90
2018-09-24T08:30:40.032Z,99.90
2018-09-24T08:33:13.728Z,99.90
2018-09-24T08:35:47.546Z,99.90
2018-09-24T08:38:21.178Z,99.90
2018-09-24T08:40:55.009Z,99.90
2018-09-24T08:43:28.727Z,99.90
2018-09-24T08:46:02.615Z,99.70
2018-09-24T08:48:36.300Z,99.90
2018-09-24T08:51:10.071Z,98.10
2018-09-24T08:53:43.887Z,98.90
2018-09-24T08:56:17.739Z,96.80
2018-09-24T08:58:51.615Z,96.30
2018-09-24T09:01:25.331Z,96.20
2018-09-24T09:03:59.071Z,94.90
2018-09-24T09:06:32.887Z,95.00
2018-09-24T09:09:06.555Z,95.80
2018-09-24T09:11:40.701Z,95.50
2018-09-24T09:14:14.375Z,96.10
2018-09-24T09:16:48.110Z,95.30
2018-09-24T09:19:21.850Z,94.60
2018-09-24T09:21:55.811Z,95.50
2018-09-24T09:24:29.528Z,96.10
2018-09-24T09:27:03.323Z,95.40
2018-09-24T09:29:37.047Z,93.50
2018-09-24T09:32:10.924Z,94.30
2018-09-24T09:34:44.775Z,92.20
2018-09-24T09:37:18.451Z,91.00
2018-09-24T09:39:52.194Z,90.30
2018-09-24T09:42:25.911Z,91.20
2018-09-24T09:44:59.682Z,90.70
2018-09-24T09:47:33.349Z,90.70
2018-09-24T09:50:07.028Z,92.60
2018-09-24T09:52:40.637Z,91.90
2018-09-24T09:55:14.270Z,92.40
2018-09-24T09:57:47.912Z,92.90
2018-09-24T10:00:21.581Z,92.80
2018-09-24T10:02:55.533Z,93.10
2018-09-24T10:05:30.125Z,93.30
2018-09-24T10:08:03.978Z,93.70
2018-09-24T10:10:37.838Z,94.10
2018-09-24T10:13:11.469Z,93.10
2018-09-24T10:15:45.223Z,93.40
2018-09-24T10:18:18.890Z,94.50
2018-09-24T10:20:52.503Z,92.00
2018-09-24T10:23:26.186Z,92.10
2018-09-24T10:25:59.802Z,91.90
2018-09-24T10:28:33.594Z,92.30
2018-09-24T10:31:07.235Z,91.10
2018-09-24T10:33:41.142Z,88.20
2018-09-24T10:36:14.746Z,89.50
2018-09-24T10:38:49.276Z,90.70
2018-09-24T10:41:23.075Z,91.50
2018-09-24T10:43:56.720Z,89.40
2018-09-24T10:46:30.423Z,90.60
2018-09-24T10:49:04.052Z,89.40
2018-09-24T10:51:37.806Z,90.80
2018-09-24T10:54:11.797Z,90.50
2018-09-24T10:56:45.601Z,90.30
2018-09-24T10:59:19.415Z,91.80
2018-09-24T11:01:52.957Z,92.00
2018-09-24T11:04:26.704Z,92.20
2018-09-24T11:07:00.499Z,93.00
2018-09-24T11:09:34.143Z,94.30
2018-09-24T11:12:07.988Z,94.10
2018-09-24T11:14:41.726Z,95.10
2018-09-24T11:17:15.720Z,93.80
2018-09-24T11:19:49.391Z,93.60
2018-09-24T11:22:23.270Z,93.00
2018-09-24T11:24:56.951Z,92.50
2018-09-24T11:27:30.834Z,90.00
2018-09-24T11:30:04.538Z,89.80
2018-09-24T11:32:38.122Z,89.40
2018-09-24T11:35:12.020Z,88.00
2018-09-24T11:37:45.857Z,79.60
2018-09-24T11:40:19.591Z,79.90
2018-09-24T11:42:53.321Z,78.50
2018-09-24T11:45:27.195Z,77.60
2018-09-24T11:48:00.843Z,75.00
2018-09-24T11:50:34.538Z,75.40
2018-09-24T11:53:08.428Z,74.40
2018-09-24T11:55:42.142Z,73.60
2018-09-24T11:58:15.996Z,72.40
2018-09-24T12:00:49.821Z,73.30
2018-09-24T12:03:23.456Z,73.50
2018-09-24T12:05:57.079Z,73.00
2018-09-24T12:08:31.427Z,70.40
2018-09-24T12:11:05.254Z,73.30
2018-09-24T12:13:39.212Z,74.10
2018-09-24T12:16:12.964Z,76.50
2018-09-24T12:18:46.722Z,79.70
2018-09-24T12:21:20.412Z,80.00
2018-09-24T12:23:54.217Z,86.80
2018-09-24T12:26:27.871Z,91.10
2018-09-24T12:29:01.690Z,92.20
2018-09-24T12:31:35.389Z,92.90
2018-09-24T12:34:09.207Z,93.80
2018-09-24T12:36:42.954Z,91.50
2018-09-24T12:39:17.203Z,92.40
2018-09-24T12:41:50.934Z,90.50
2018-09-24T12:44:24.623Z,91.20
2018-09-24T12:46:58.343Z,88.80
2018-09-24T12:49:32.015Z,80.40
2018-09-24T12:52:05.809Z,78.00
2018-09-24T12:54:40.480Z,79.30
2018-09-24T12:57:14.362Z,76.30
2018-09-24T12:59:48.104Z,79.20
2018-09-24T13:02:21.935Z,76.80
2018-09-24T13:04:55.523Z,75.10
2018-09-24T13:07:29.474Z,74.90
2018-09-24T13:10:03.201Z,72.10
2018-09-24T13:12:37.014Z,73.70
2018-09-24T13:15:10.892Z,71.90
2018-09-24T13:17:44.645Z,73.90
2018-09-24T13:20:18.410Z,71.80
2018-09-24T13:22:52.186Z,73.00
2018-09-24T13:25:25.806Z,72.70
2018-09-24T13:27:59.608Z,71.30
2018-09-24T13:30:33.445Z,70.80
2018-09-24T13:33:07.526Z,70.90
2018-09-24T13:35:41.758Z,69.90
2018-09-24T13:38:15.422Z,69.10
2018-09-24T13:40:48.939Z,70.60
2018-09-24T13:43:22.802Z,70.60
2018-09-24T13:45:56.749Z,68.00
2018-09-24T13:48:30.701Z,70.40
2018-09-24T13:51:04.346Z,69.50
2018-09-24T13:53:38.041Z,69.80
2018-09-24T13:56:11.727Z,67.00
2018-09-24T13:58:45.459Z,62.70
2018-09-24T14:01:19.118Z,64.70
2018-09-24T14:03:52.925Z,62.80
2018-09-24T14:06:26.608Z,65.10
2018-09-24T14:09:00.193Z,64.20
2018-09-24T14:11:33.833Z,65.60
2018-09-24T14:14:07.638Z,63.60
2018-09-24T14:16:41.365Z,61.60
2018-09-24T14:19:15.112Z,62.30
2018-09-24T14:21:48.849Z,63.40
2018-09-24T14:24:22.673Z,64.50
2018-09-24T14:26:56.596Z,64.80
2018-09-24T14:29:30.333Z,63.10
2018-09-24T14:32:04.101Z,63.00
2018-09-24T14:34:37.965Z,62.90
2018-09-24T14:37:11.916Z,64.90
2018-09-24T14:39:45.643Z,66.60
2018-09-24T14:42:19.418Z,64.40
2018-09-24T14:44:53.121Z,65.20
2018-09-24T14:47:26.930Z,65.10
2018-09-24T14:50:00.555Z,65.10
2018-09-24T14:52:34.306Z,60.50
2018-09-24T14:55:08.030Z,58.90
2018-09-24T14:57:41.785Z,57.50
2018-09-24T15:00:15.542Z,58.60
2018-09-24T15:02:49.398Z,59.80
2018-09-24T15:05:23.091Z,59.40
2018-09-24T15:07:57.076Z,60.90
2018-09-24T15:10:30.721Z,61.70
2018-09-24T15:13:04.449Z,61.00
2018-09-24T15:15:38.337Z,63.90
2018-09-24T15:18:12.266Z,65.40
2018-09-24T15:20:46.648Z,67.60
2018-09-24T15:23:20.402Z,67.70
2018-09-24T15:25:54.371Z,68.20
2018-09-24T15:28:28.126Z,70.00
2018-09-24T15:31:01.736Z,69.10
2018-09-24T15:33:35.502Z,68.40
2018-09-24T15:36:09.199Z,72.30
2018-09-24T15:38:42.802Z,70.80
2018-09-24T15:41:16.652Z,68.10
2018-09-24T15:43:50.484Z,64.10
2018-09-24T15:46:24.163Z,63.70
2018-09-24T15:48:58.003Z,61.90
2018-09-24T15:51:31.827Z,63.50
2018-09-24T15:54:05.538Z,61.60
2018-09-24T15:56:39.837Z,63.90
2018-09-24T15:59:13.565Z,63.40
2018-09-24T16:01:47.345Z,63.20
2018-09-24T16:04:20.987Z,66.90
2018-09-24T16:06:54.890Z,64.30
2018-09-24T16:09:28.627Z,66.20
2018-09-24T16:12:02.350Z,65.80
2018-09-24T16:14:36.205Z,67.30
2018-09-24T16:17:10.048Z,68.40
2018-09-24T16:19:43.734Z,70.00
2018-09-24T16:22:17.599Z,69.60
2018-09-24T16:24:51.381Z,69.20
2018-09-24T16:27:25.257Z,69.40
2018-09-24T16:29:58.901Z,70.00
2018-09-24T16:32:32.455Z,71.10
2018-09-24T16:35:06.266Z,70.00
2018-09-24T16:37:40.046Z,71.70
2018-09-24T16:40:13.922Z,71.60
2018-09-24T16:42:47.704Z,74.10
2018-09-24T16:45:21.460Z,72.00
2018-09-24T16:47:55.269Z,72.20
2018-09-24T16:50:35.938Z,72.70
2018-09-24T16:53:09.735Z,72.20
2018-09-24T16:55:43.449Z,74.00
2018-09-24T16:58:17.203Z,73.00
2018-09-24T17:00:50.818Z,74.00
2018-09-24T17:03:24.459Z,73.50
2018-09-24T17:05:58.300Z,75.00
2018-09-24T17:08:31.986Z,74.30
2018-09-24T17:11:05.700Z,75.90
2018-09-24T17:13:41.305Z,75.00
2018-09-24T17:16:15.483Z,75.20
2018-09-24T17:18:49.155Z,75.00
2018-09-24T17:21:22.885Z,74.70
2018-09-24T17:23:56.532Z,72.90
2018-09-24T17:26:30.362Z,73.40
2018-09-24T17:29:04.170Z,73.30
2018-09-24T17:31:37.889Z,75.00
2018-09-24T17:34:11.602Z,74.30
2018-09-24T17:36:45.460Z,75.30
2018-09-24T17:39:19.307Z,75.40
2018-09-24T17:41:53.091Z,75.80
2018-09-24T17:44:27.087Z,76.00
2018-09-24T17:47:00.959Z,76.60
2018-09-24T17:49:34.796Z,77.20
2018-09-24T17:52:08.502Z,77.90
2018-09-24T17:54:42.404Z,77.80
2018-09-24T17:57:16.097Z,77.50
2018-09-24T17:59:52.543Z,78.70
2018-09-24T18:02:26.212Z,79.70
2018-09-24T18:05:00.024Z,79.30
2018-09-24T18:07:33.688Z,82.30
2018-09-24T18:10:07.268Z,82.60
2018-09-24T18:12:40.960Z,85.30
2018-09-24T18:15:14.649Z,85.00
2018-09-24T18:17:48.232Z,85.60
2018-09-24T18:20:21.897Z,86.60
2018-09-24T18:22:55.468Z,87.40
2018-09-24T18:25:29.244Z,88.90
2018-09-24T18:28:02.918Z,89.70
2018-09-24T18:30:36.565Z,89.90
2018-09-24T18:33:10.433Z,90.50
2018-09-24T18:35:44.113Z,91.10
2018-09-24T18:38:17.870Z,91.50
2018-09-24T18:40:51.715Z,91.80
2018-09-24T18:43:25.423Z,91.80
2018-09-24T18:45:59.796Z,92.10
2018-09-24T18:48:33.614Z,92.20
2018-09-24T18:51:07.982Z,92.50
2018-09-24T18:53:41.845Z,92.50
2018-09-24T18:56:15.669Z,92.50
2018-09-24T18:58:49.229Z,92.60
2018-09-24T19:01:23.052Z,92.90
2018-09-24T19:03:57.069Z,93.00
2018-09-24T19:06:30.898Z,93.30
2018-09-24T19:09:04.689Z,93.50
2018-09-24T19:11:38.580Z,93.60
2018-09-24T19:14:12.342Z,94.10
2018-09-24T19:16:46.099Z,94.20
2018-09-24T19:19:19.817Z,94.40
2018-09-24T19:21:54.165Z,94.70
2018-09-24T19:24:28.026Z,95.00
2018-09-24T19:27:01.871Z,94.90
2018-09-24T19:29:35.733Z,95.20
2018-09-24T19:32:09.437Z,95.20
2018-09-24T19:34:43.361Z,95.10
2018-09-24T19:37:17.751Z,95.40
2018-09-24T19:39:51.447Z,95.70
2018-09-24T19:42:25.190Z,95.70
2018-09-24T19:44:59.049Z,95.80
2018-09-24T19:47:32.791Z,96.10
2018-09-24T19:50:07.213Z,96.10
2018-09-24T19:52:40.878Z,96.50
2018-09-24T19:55:14.567Z,96.50
2018-09-24T19:57:48.938Z,96.50
2018-09-24T20:00:22.800Z,96.50
2018-09-24T20:02:56.568Z,96.70
2018-09-24T20:05:30.272Z,97.00
2018-09-24T20:08:03.978Z,96.70
2018-09-24T20:10:37.601Z,96.80
2018-09-24T20:13:11.374Z,97.10
2018-09-24T20:15:45.044Z,97.00
2018-09-24T20:18:18.862Z,97.40
2018-09-24T20:20:52.618Z,97.40
2018-09-24T20:23:26.353Z,97.80
2018-09-24T20:26:00.195Z,98.10
2018-09-24T20:28:34.018Z,98.40
2018-09-24T20:31:07.839Z,98.20
2018-09-24T20:33:41.444Z,98.60
2018-09-24T20:36:15.175Z,99.10
2018-09-24T20:38:48.843Z,99.10
2018-09-24T20:41:22.773Z,99.20
2018-09-24T20:43:56.376Z,99.20
2018-09-24T20:46:30.181Z,99.20
2018-09-24T20:49:03.825Z,99.00
2018-09-24T20:51:37.565Z,99.10
2018-09-24T20:54:11.316Z,99.20
2018-09-24T20:56:45.055Z,99.50
2018-09-24T20:59:19.552Z,99.30
2018-09-24T21:01:53.351Z,99.50
2018-09-24T21:07:00.795Z,99.00
2018-09-24T21:09:34.542Z,99.50
2018-09-24T21:12:08.528Z,99.50
2018-09-24T21:14:42.214Z,99.50
2018-09-24T21:17:16.062Z,99.80
2018-09-24T21:19:49.835Z,99.50
2018-09-24T21:22:23.878Z,99.70
2018-09-24T21:24:57.616Z,99.60
2018-09-24T21:27:31.318Z,99.60
2018-09-24T21:30:05.050Z,99.80
2018-09-24T21:32:38.889Z,99.90
2018-09-24T21:35:12.700Z,99.90
2018-09-24T21:37:46.508Z,99.90
2018-09-24T21:40:20.126Z,99.80
2018-09-24T21:42:53.899Z,99.80
2018-09-24T21:45:27.829Z,99.70
2018-09-24T21:48:01.529Z,99.70
2018-09-24T21:50:35.286Z,99.60
2018-09-24T21:53:09.056Z,99.60
2018-09-24T21:55:43.243Z,99.90
2018-09-24T21:58:17.127Z,99.90
2018-09-24T22:00:50.781Z,99.70
2018-09-24T22:03:24.389Z,99.80
2018-09-24T22:05:58.267Z,99.90
2018-09-24T22:08:31.858Z,99.60
2018-09-24T22:11:05.429Z,99.90
2018-09-24T22:13:39.249Z,99.60
2018-09-24T22:16:13.025Z,99.60
2018-09-24T22:18:46.898Z,99.90
2018-09-24T22:21:20.579Z,99.90
2018-09-24T22:23:54.303Z,99.90
2018-09-24T22:26:27.910Z,99.90
2018-09-24T22:29:01.623Z,99.90
2018-09-24T22:31:35.383Z,99.90
2018-09-24T22:34:09.233Z,99.90
2018-09-24T22:36:42.902Z,99.90
2018-09-24T22:39:16.817Z,99.90
2018-09-24T22:41:50.534Z,99.90
2018-09-24T22:44:24.331Z,99.90
2018-09-24T22:46:58.133Z,99.90
2018-09-24T22:49:31.685Z,99.90
2018-09-24T22:52:05.525Z,99.90
2018-09-24T22:54:39.317Z,99.90
2018-09-24T22:57:13.394Z,99.90
2018-09-24T22:59:47.177Z,99.90
2018-09-24T23:02:20.844Z,99.90
2018-09-24T23:04:54.505Z,99.90
2018-09-24T23:07:28.125Z,99.90
2018-09-24T23:10:01.909Z,99.90
2018-09-24T23:12:35.522Z,99.90
2018-09-24T23:15:09.202Z,99.90
2018-09-24T23:17:42.974Z,99.90
2018-09-24T23:20:16.676Z,99.90
2018-09-24T23:22:50.330Z,99.90
2018-09-24T23:25:24.129Z,99.90
2018-09-24T23:27:57.942Z,99.90
2018-09-24T23:30:31.705Z,99.90
2018-09-24T23:33:05.513Z,99.90
2018-09-24T23:35:39.313Z,99.90
2018-09-24T23:38:12.997Z,99.90
2018-09-24T23:40:46.705Z,99.90
2018-09-24T23:43:20.518Z,99.90
2018-09-24T23:45:54.207Z,99.90
2018-09-24T23:48:28.000Z,99.90
2018-09-24T23:51:01.835Z,99.90
2018-09-24T23:53:35.563Z,99.90
2018-09-24T23:56:09.271Z,99.90
2018-09-24T23:58:43.137Z,99.90
